Disclaimer

Please do not use the information listed here in-flight or in-navigation, as they are not provided to us by the airports but are provided by volunteers, so they might be outdated.

Search


Regions


Airport information page

Radio informations:
RDO - 122.1 MHz
WINNIPEG RDO - 126.7 MHz
WINNIPEG CNTR - 132.25 MHz
MF - 122.1 MHz

Airport informations:
Latitude: 49° 54' 36.00" N
Longitude: 099° 57' 07.00" W
Elevation: 1343 feet - 409 meters
Operating hours: 24 hour operations
Operating agency: Municipal
Timezone: UTC-6(-5DT) - Second Sunday in March at 0200 to first Sunday in November at 0200 local time (Exception Arizona and that portion of Indiana in the Eastern Time Zone)
Fuel: Jet B+, wide cut turbine fuel with icing inhibitor.

100/130 MIL Spec, low lead, aviation gasoline (BLUE)

Runway information:
02/20 - 2795 x 100 feet< - >852 x 30 meters
08/26 - 6500 x 150 feet< - >1981 x 46 meters
14/32 - 3000 x 60 feet< - >914 x 18 meters

Recent METARs:
CYBR 181738Z 07015KT 3SM -SN OVC029 M11/M15 A3002 RMK SC8 VIS VRB 2-4 SLP204
CYBR 181800Z 07014KT 3SM -SN OVC029 M11/M15 A3002 RMK SC8 SLP206
CYBR 181900Z 07014KT 3SM -SN OVC028 M11/M15 A3003 RMK SC8 SLP208

Airport on the map: